createdAt,value
2018-10-06T00:01:39.078Z,10.20
2018-10-06T00:04:13.736Z,10.20
2018-10-06T00:06:48.142Z,10.20
2018-10-06T00:09:22.870Z,10.10
2018-10-06T00:11:58.356Z,10.10
2018-10-06T00:14:32.932Z,10.10
2018-10-06T00:17:07.433Z,10.00
2018-10-06T00:19:42.373Z,10.00
2018-10-06T00:22:16.572Z,10.00
2018-10-06T00:24:51.446Z,10.00
2018-10-06T00:27:26.837Z,10.00
2018-10-06T00:30:01.359Z,10.00
2018-10-06T00:32:35.875Z,9.90
2018-10-06T00:35:10.322Z,9.90
2018-10-06T00:37:45.110Z,9.90
2018-10-06T00:40:19.360Z,9.90
2018-10-06T00:42:54.312Z,9.90
2018-10-06T00:45:29.422Z,9.90
2018-10-06T00:48:03.997Z,9.90
2018-10-06T00:50:38.569Z,9.80
2018-10-06T00:53:13.483Z,9.90
2018-10-06T00:55:47.662Z,9.80
2018-10-06T00:58:22.435Z,9.80
2018-10-06T01:00:57.054Z,9.80
2018-10-06T01:03:32.348Z,9.80
2018-10-06T01:06:06.805Z,9.80
2018-10-06T01:08:41.489Z,9.90
2018-10-06T01:11:15.899Z,9.90
2018-10-06T01:13:50.630Z,9.90
2018-10-06T01:16:25.221Z,9.90
2018-10-06T01:18:59.725Z,9.80
2018-10-06T01:21:34.253Z,9.80
2018-10-06T01:24:08.714Z,9.80
2018-10-06T01:26:43.189Z,9.80
2018-10-06T01:29:17.965Z,9.80
2018-10-06T01:31:52.600Z,9.80
2018-10-06T01:34:27.399Z,9.70
2018-10-06T01:37:01.591Z,9.70
2018-10-06T01:39:36.066Z,9.70
2018-10-06T01:42:10.578Z,9.70
2018-10-06T01:44:45.115Z,9.70
2018-10-06T01:47:19.548Z,9.70
2018-10-06T01:49:54.247Z,9.70
2018-10-06T01:52:28.680Z,9.60
2018-10-06T01:55:04.367Z,9.70
2018-10-06T01:57:38.773Z,9.60
2018-10-06T02:00:13.334Z,9.70
2018-10-06T02:02:47.637Z,9.60
2018-10-06T02:05:22.371Z,9.60
2018-10-06T02:07:56.945Z,9.70
2018-10-06T02:10:31.668Z,9.60
2018-10-06T02:13:06.204Z,9.60
2018-10-06T02:15:40.694Z,9.60
2018-10-06T02:18:15.252Z,9.60
2018-10-06T02:20:49.959Z,9.70
2018-10-06T02:23:24.496Z,9.60
2018-10-06T02:25:58.945Z,9.70
2018-10-06T02:28:34.053Z,9.60
2018-10-06T02:31:09.389Z,9.60
2018-10-06T02:33:43.509Z,9.60
2018-10-06T02:36:18.144Z,9.60
2018-10-06T02:38:52.726Z,9.60
2018-10-06T02:41:27.431Z,9.60
2018-10-06T02:44:02.051Z,9.60
2018-10-06T02:46:36.537Z,9.60
2018-10-06T02:49:11.127Z,9.60
2018-10-06T02:51:45.819Z,9.60
2018-10-06T02:54:20.278Z,9.60
2018-10-06T02:56:55.007Z,9.60
2018-10-06T02:59:29.378Z,9.60
2018-10-06T03:02:03.950Z,9.60
2018-10-06T03:04:38.483Z,9.60
2018-10-06T03:07:13.555Z,9.60
2018-10-06T03:09:48.469Z,9.60
2018-10-06T03:12:23.014Z,9.60
2018-10-06T03:14:57.804Z,9.60
2018-10-06T03:17:32.513Z,9.60
2018-10-06T03:20:07.098Z,9.60
2018-10-06T03:22:42.035Z,9.60
2018-10-06T03:25:16.856Z,9.60
2018-10-06T03:27:51.478Z,9.60
2018-10-06T03:30:25.564Z,9.60
2018-10-06T03:33:00.304Z,9.60
2018-10-06T03:35:34.506Z,9.60
2018-10-06T03:38:09.187Z,9.60
2018-10-06T03:40:43.952Z,9.60
2018-10-06T03:43:18.469Z,9.60
2018-10-06T03:45:52.985Z,9.50
2018-10-06T03:48:27.369Z,9.50
2018-10-06T03:51:02.362Z,9.50
2018-10-06T03:53:36.972Z,9.50
2018-10-06T03:56:11.855Z,9.50
2018-10-06T03:58:46.979Z,9.40
2018-10-06T04:01:21.433Z,9.40
2018-10-06T04:03:56.045Z,9.40
2018-10-06T04:06:30.542Z,9.40
2018-10-06T04:09:07.877Z,9.40
2018-10-06T04:11:42.926Z,9.40
2018-10-06T04:14:17.401Z,9.50
2018-10-06T04:16:52.208Z,9.50
2018-10-06T04:19:27.710Z,9.50
2018-10-06T04:22:02.239Z,9.50
2018-10-06T04:24:36.758Z,9.50
2018-10-06T04:27:11.309Z,9.50
2018-10-06T04:29:45.897Z,9.50
2018-10-06T04:32:20.624Z,9.60
2018-10-06T04:34:54.972Z,9.60
2018-10-06T04:37:29.701Z,9.60
2018-10-06T04:40:03.857Z,9.60
2018-10-06T04:42:38.667Z,9.60
2018-10-06T04:45:12.989Z,9.70
2018-10-06T04:47:47.849Z,9.70
2018-10-06T04:50:22.136Z,9.60
2018-10-06T04:52:56.729Z,9.60
2018-10-06T04:55:31.309Z,9.60
2018-10-06T04:58:05.893Z,9.60
2018-10-06T05:00:40.381Z,9.60
2018-10-06T05:03:15.090Z,9.60
2018-10-06T05:05:49.710Z,9.60
2018-10-06T05:08:24.011Z,9.60
2018-10-06T05:10:58.668Z,9.60
2018-10-06T05:13:33.310Z,9.70
2018-10-06T05:16:07.824Z,9.70
2018-10-06T05:18:42.441Z,9.70
2018-10-06T05:21:16.999Z,9.70
2018-10-06T05:23:51.649Z,9.70
2018-10-06T05:26:26.070Z,9.80
2018-10-06T05:29:00.823Z,9.80
2018-10-06T05:31:35.644Z,9.80
2018-10-06T05:34:09.847Z,9.80
2018-10-06T05:36:44.465Z,9.80
2018-10-06T05:39:19.042Z,9.90
2018-10-06T05:41:53.550Z,9.90
2018-10-06T05:44:28.523Z,9.90
2018-10-06T05:47:03.001Z,9.90
2018-10-06T05:49:37.395Z,10.00
2018-10-06T05:52:11.868Z,10.00
2018-10-06T05:54:46.413Z,10.10
2018-10-06T05:57:21.448Z,10.10
2018-10-06T05:59:55.735Z,10.10
2018-10-06T06:02:30.264Z,10.20
2018-10-06T06:05:09.449Z,10.20
2018-10-06T06:07:45.286Z,10.30
2018-10-06T06:10:20.174Z,10.30
2018-10-06T06:12:54.565Z,10.60
2018-10-06T06:15:29.274Z,10.80
2018-10-06T06:18:03.852Z,10.90
2018-10-06T06:20:38.426Z,11.10
2018-10-06T06:23:13.293Z,11.20
2018-10-06T06:25:47.406Z,11.40
2018-10-06T06:28:21.993Z,11.60
2018-10-06T06:30:56.806Z,11.80
2018-10-06T06:33:31.069Z,11.90
2018-10-06T06:36:05.957Z,11.90
2018-10-06T06:38:40.318Z,12.00
2018-10-06T06:41:14.853Z,12.10
2018-10-06T06:43:49.549Z,12.10
2018-10-06T06:46:24.218Z,12.20
2018-10-06T06:48:58.779Z,12.30
2018-10-06T06:51:33.572Z,12.50
2018-10-06T06:54:08.001Z,12.60
2018-10-06T06:56:42.611Z,12.80
2018-10-06T06:59:17.281Z,13.00
2018-10-06T07:01:51.865Z,13.20
2018-10-06T07:04:26.386Z,13.50
2018-10-06T07:07:00.943Z,13.80
2018-10-06T07:09:35.442Z,14.10
2018-10-06T07:12:10.128Z,14.40
2018-10-06T07:14:44.955Z,14.60
2018-10-06T07:17:19.857Z,14.80
2018-10-06T07:19:54.109Z,15.00
2018-10-06T07:22:28.989Z,15.10
2018-10-06T07:25:04.183Z,15.20
2018-10-06T07:27:38.637Z,15.30
2018-10-06T07:30:13.124Z,15.40
2018-10-06T07:32:47.601Z,15.40
2018-10-06T07:35:21.992Z,15.60
2018-10-06T07:37:56.542Z,15.80
2018-10-06T07:40:31.092Z,16.10
2018-10-06T07:43:05.738Z,16.30
2018-10-06T07:45:40.553Z,16.60
2018-10-06T07:48:14.826Z,16.90
2018-10-06T07:50:49.392Z,17.20
2018-10-06T07:53:24.139Z,17.50
2018-10-06T07:55:58.540Z,17.90
2018-10-06T07:58:33.269Z,18.10
2018-10-06T08:01:07.996Z,18.30
2018-10-06T08:03:42.373Z,18.50
2018-10-06T08:06:17.167Z,18.70
2018-10-06T08:08:51.866Z,18.90
2018-10-06T08:11:26.428Z,19.00
2018-10-06T08:14:01.031Z,19.20
2018-10-06T08:16:35.829Z,19.30
2018-10-06T08:19:10.179Z,19.50
2018-10-06T08:21:44.881Z,19.70
2018-10-06T08:24:19.534Z,19.80
2018-10-06T08:26:53.814Z,20.10
2018-10-06T08:29:28.276Z,20.20
2018-10-06T08:32:02.941Z,20.40
2018-10-06T08:34:37.619Z,20.60
2018-10-06T08:37:12.065Z,20.80
2018-10-06T08:39:47.497Z,21.00
2018-10-06T08:42:22.339Z,21.30
2018-10-06T08:44:57.038Z,21.50
2018-10-06T08:47:31.774Z,21.70
2018-10-06T08:50:06.931Z,21.90
2018-10-06T08:52:41.494Z,22.10
2018-10-06T08:55:16.136Z,22.30
2018-10-06T08:57:50.708Z,22.50
2018-10-06T09:00:25.582Z,22.60
2018-10-06T09:03:00.220Z,22.60
2018-10-06T09:05:34.823Z,22.60
2018-10-06T09:08:09.360Z,22.50
2018-10-06T09:10:43.662Z,22.40
2018-10-06T09:13:18.732Z,22.20
2018-10-06T09:15:54.145Z,22.10
2018-10-06T09:18:28.480Z,22.00
2018-10-06T09:21:03.457Z,21.80
2018-10-06T09:23:38.538Z,21.70
2018-10-06T09:26:13.151Z,21.60
2018-10-06T09:28:47.690Z,21.60
2018-10-06T09:31:22.161Z,21.60
2018-10-06T09:33:56.884Z,21.70
2018-10-06T09:36:31.419Z,21.70
2018-10-06T09:39:07.949Z,21.70
2018-10-06T09:41:42.439Z,21.70
2018-10-06T09:44:17.057Z,21.70
2018-10-06T09:46:51.553Z,21.70
2018-10-06T09:49:26.249Z,21.70
2018-10-06T09:52:00.938Z,21.70
2018-10-06T09:54:36.014Z,21.70
2018-10-06T09:57:10.733Z,21.80
2018-10-06T09:59:45.499Z,21.80
2018-10-06T10:02:25.458Z,21.90
2018-10-06T10:05:06.202Z,22.10
2018-10-06T10:07:41.799Z,22.20
2018-10-06T10:10:16.629Z,22.40
2018-10-06T10:12:51.229Z,22.60
2018-10-06T10:15:26.065Z,22.80
2018-10-06T10:18:00.285Z,22.90
2018-10-06T10:20:34.725Z,23.00
2018-10-06T10:23:09.676Z,23.00
2018-10-06T10:25:43.829Z,23.10
2018-10-06T10:28:18.853Z,23.10
2018-10-06T10:30:53.085Z,23.10
2018-10-06T10:33:27.776Z,23.00
2018-10-06T10:36:03.186Z,22.90
2018-10-06T10:38:38.094Z,22.80
2018-10-06T10:41:12.991Z,22.70
2018-10-06T10:43:47.554Z,22.60
2018-10-06T10:46:22.107Z,22.50
2018-10-06T10:48:56.709Z,22.40
2018-10-06T10:51:31.237Z,22.40
2018-10-06T10:54:05.770Z,22.40
2018-10-06T10:56:40.301Z,22.40
2018-10-06T10:59:14.941Z,22.40
2018-10-06T11:01:49.835Z,22.40
2018-10-06T11:04:24.161Z,22.40
2018-10-06T11:06:58.796Z,22.50
2018-10-06T11:09:33.419Z,22.60
2018-10-06T11:12:09.100Z,22.80
2018-10-06T11:14:43.550Z,22.90
2018-10-06T11:17:18.063Z,23.10
2018-10-06T11:19:52.793Z,23.20
2018-10-06T11:22:28.173Z,23.20
2018-10-06T11:25:03.204Z,23.30
2018-10-06T11:27:37.816Z,23.30
2018-10-06T11:30:12.138Z,23.30
2018-10-06T11:32:47.082Z,23.30
2018-10-06T11:35:21.477Z,23.30
2018-10-06T11:37:56.198Z,23.30
2018-10-06T11:40:30.948Z,23.20
2018-10-06T11:43:05.926Z,23.10
2018-10-06T11:45:40.986Z,23.00
2018-10-06T11:48:15.615Z,22.90
2018-10-06T11:50:50.241Z,22.80
2018-10-06T11:53:24.958Z,22.70
2018-10-06T11:55:59.356Z,22.60
2018-10-06T11:58:33.875Z,22.60
2018-10-06T12:01:08.494Z,22.50
2018-10-06T12:03:42.886Z,22.50
2018-10-06T12:06:17.863Z,22.60
2018-10-06T12:08:52.559Z,22.60
2018-10-06T12:11:27.425Z,22.50
2018-10-06T12:14:02.385Z,22.50
2018-10-06T12:16:36.829Z,22.50
2018-10-06T12:19:11.421Z,22.50
2018-10-06T12:21:46.017Z,22.50
2018-10-06T12:24:20.614Z,22.50
2018-10-06T12:26:55.125Z,22.50
2018-10-06T12:29:29.750Z,22.50
2018-10-06T12:32:04.132Z,22.60
2018-10-06T12:34:38.699Z,22.60
2018-10-06T12:37:13.530Z,22.60
2018-10-06T12:39:47.815Z,22.60
2018-10-06T12:42:22.571Z,22.60
2018-10-06T12:44:58.129Z,22.50
2018-10-06T12:47:32.692Z,22.60
2018-10-06T12:50:07.137Z,22.60
2018-10-06T12:52:41.681Z,22.50
2018-10-06T12:55:16.097Z,22.40
2018-10-06T12:57:50.634Z,22.40
2018-10-06T13:00:25.178Z,22.30
2018-10-06T13:02:59.812Z,22.20
2018-10-06T13:05:34.314Z,22.10
2018-10-06T13:08:09.083Z,22.10
2018-10-06T13:10:43.721Z,22.00
2018-10-06T13:13:18.427Z,22.00
2018-10-06T13:15:53.026Z,22.00
2018-10-06T13:18:27.390Z,21.90
2018-10-06T13:21:01.942Z,21.90
2018-10-06T13:23:37.095Z,21.90
2018-10-06T13:26:11.250Z,21.90
2018-10-06T13:28:45.796Z,21.90
2018-10-06T13:31:20.645Z,21.90
2018-10-06T13:33:55.330Z,21.80
2018-10-06T13:36:29.990Z,21.80
2018-10-06T13:39:07.263Z,21.70
2018-10-06T13:41:42.385Z,21.70
2018-10-06T13:44:17.028Z,21.60
2018-10-06T13:46:51.539Z,21.50
2018-10-06T13:49:26.215Z,21.50
2018-10-06T13:52:00.679Z,21.50
2018-10-06T13:54:35.269Z,21.60
2018-10-06T13:57:09.949Z,21.90
2018-10-06T13:59:44.859Z,22.00
2018-10-06T14:02:19.351Z,22.20
2018-10-06T14:04:54.634Z,22.40
2018-10-06T14:07:29.159Z,22.60
2018-10-06T14:10:03.998Z,22.80
2018-10-06T14:12:39.214Z,23.40
2018-10-06T14:15:13.917Z,23.80
2018-10-06T14:17:48.680Z,24.50
2018-10-06T14:20:23.635Z,24.80
2018-10-06T14:22:58.561Z,24.80
2018-10-06T14:25:32.773Z,24.60
2018-10-06T14:28:07.564Z,24.40
2018-10-06T14:30:41.910Z,24.10
2018-10-06T14:33:16.781Z,23.80
2018-10-06T14:35:51.380Z,23.50
2018-10-06T14:38:26.148Z,23.20
2018-10-06T14:41:01.630Z,23.00
2018-10-06T14:43:36.369Z,22.70
2018-10-06T14:46:11.027Z,22.50
2018-10-06T14:48:46.012Z,22.30
2018-10-06T14:51:20.429Z,22.10
2018-10-06T14:53:55.130Z,21.90
2018-10-06T14:56:29.808Z,21.80
2018-10-06T14:59:04.717Z,21.60
2018-10-06T15:01:39.305Z,21.50
2018-10-06T15:04:14.233Z,21.30
2018-10-06T15:06:48.755Z,21.20
2018-10-06T15:09:23.751Z,21.10
2018-10-06T15:11:58.834Z,21.00
2018-10-06T15:14:33.663Z,20.90
2018-10-06T15:17:08.415Z,20.80
2018-10-06T15:19:43.415Z,20.70
2018-10-06T15:22:17.921Z,20.60
2018-10-06T15:24:52.706Z,20.40
2018-10-06T15:27:27.842Z,20.30
2018-10-06T15:30:02.581Z,20.30
2018-10-06T15:32:37.233Z,20.20
2018-10-06T15:35:11.868Z,20.10
2018-10-06T15:37:46.332Z,20.00
2018-10-06T15:40:20.934Z,19.90
2018-10-06T15:42:55.441Z,19.90
2018-10-06T15:45:30.320Z,19.80
2018-10-06T15:48:04.867Z,19.70
2018-10-06T15:50:39.392Z,19.60
2018-10-06T15:53:14.632Z,19.60
2018-10-06T15:55:49.029Z,19.50
2018-10-06T15:58:24.008Z,19.50
2018-10-06T16:00:58.406Z,19.50
2018-10-06T16:03:32.896Z,19.40
2018-10-06T16:06:07.669Z,19.30
2018-10-06T16:08:49.288Z,19.20
2018-10-06T16:11:24.092Z,19.20
2018-10-06T16:13:58.730Z,19.10
2018-10-06T16:16:33.347Z,19.00
2018-10-06T16:19:08.090Z,18.90
2018-10-06T16:21:43.360Z,18.80
2018-10-06T16:24:18.173Z,18.70
2018-10-06T16:26:53.221Z,18.60
2018-10-06T16:29:27.717Z,18.50
2018-10-06T16:32:02.498Z,18.40
2018-10-06T16:34:39.569Z,18.40
2018-10-06T16:37:13.974Z,18.30
2018-10-06T16:39:48.604Z,18.20
2018-10-06T16:42:23.278Z,18.10
2018-10-06T16:44:57.916Z,18.00
2018-10-06T16:47:32.613Z,18.00
2018-10-06T16:50:07.497Z,17.90
2018-10-06T16:52:41.791Z,17.80
2018-10-06T16:55:16.542Z,17.80
2018-10-06T16:57:51.281Z,17.80
2018-10-06T17:00:26.286Z,17.80
2018-10-06T17:03:00.619Z,17.90
2018-10-06T17:05:38.205Z,18.00
2018-10-06T17:08:12.837Z,18.00
2018-10-06T17:10:47.598Z,18.00
2018-10-06T17:13:22.245Z,18.10
2018-10-06T17:15:56.734Z,18.10
2018-10-06T17:18:31.868Z,18.10
2018-10-06T17:21:06.053Z,18.00
2018-10-06T17:23:40.898Z,18.00
2018-10-06T17:26:15.358Z,18.00
2018-10-06T17:28:49.920Z,17.90
2018-10-06T17:31:25.095Z,17.90
2018-10-06T17:33:59.509Z,17.80
2018-10-06T17:36:35.715Z,17.70
2018-10-06T17:39:10.234Z,17.70
2018-10-06T17:41:44.774Z,17.70
2018-10-06T17:44:19.559Z,17.60
2018-10-06T17:46:54.433Z,17.60
2018-10-06T17:49:28.937Z,17.50
2018-10-06T17:52:03.349Z,17.50
2018-10-06T17:54:38.385Z,17.50
2018-10-06T17:57:13.261Z,17.50
2018-10-06T17:59:48.143Z,17.50
2018-10-06T18:02:23.570Z,17.50
2018-10-06T18:04:58.645Z,17.50
2018-10-06T18:07:33.226Z,17.50
2018-10-06T18:10:08.267Z,17.60
2018-10-06T18:12:42.878Z,17.60
2018-10-06T18:15:18.118Z,17.70
2018-10-06T18:17:53.693Z,17.90
2018-10-06T18:20:29.073Z,18.10
2018-10-06T18:23:03.378Z,18.30
2018-10-06T18:25:40.248Z,18.40
2018-10-06T18:28:14.822Z,18.60
2018-10-06T18:30:49.384Z,18.70
2018-10-06T18:33:24.177Z,18.70
2018-10-06T18:35:58.721Z,18.70
2018-10-06T18:38:33.991Z,18.60
2018-10-06T18:41:09.099Z,18.60
2018-10-06T18:43:43.936Z,18.60
2018-10-06T18:46:18.436Z,18.50
2018-10-06T18:48:53.066Z,18.40
2018-10-06T18:51:27.577Z,18.40
2018-10-06T18:54:02.248Z,18.40
2018-10-06T18:56:37.004Z,18.40
2018-10-06T18:59:11.861Z,18.30
2018-10-06T19:01:46.497Z,18.20
2018-10-06T19:04:21.510Z,18.10
2018-10-06T19:06:56.195Z,18.00
2018-10-06T19:09:31.277Z,17.90
2018-10-06T19:12:06.553Z,17.80
2018-10-06T19:14:41.301Z,17.80
2018-10-06T19:17:16.778Z,17.70
2018-10-06T19:19:51.345Z,17.70
2018-10-06T19:22:26.161Z,17.60
2018-10-06T19:25:01.035Z,17.60
2018-10-06T19:27:36.003Z,17.60
2018-10-06T19:30:11.082Z,17.60
2018-10-06T19:32:45.829Z,17.60
2018-10-06T19:35:20.711Z,17.60
2018-10-06T19:37:55.873Z,17.50
2018-10-06T19:40:30.707Z,17.50
2018-10-06T19:43:05.858Z,17.40
2018-10-06T19:45:40.526Z,17.30
2018-10-06T19:48:15.090Z,17.30
2018-10-06T19:50:50.164Z,17.20
2018-10-06T19:53:24.796Z,17.10
2018-10-06T19:55:59.413Z,17.10
2018-10-06T19:58:33.859Z,17.00
2018-10-06T20:01:08.934Z,16.90
2018-10-06T20:03:43.230Z,16.80
2018-10-06T20:06:17.953Z,16.80
2018-10-06T20:08:52.592Z,16.70
2018-10-06T20:11:27.156Z,16.60
2018-10-06T20:14:01.956Z,16.60
2018-10-06T20:16:36.305Z,16.50
2018-10-06T20:19:10.944Z,16.50
2018-10-06T20:21:46.131Z,16.50
2018-10-06T20:24:21.493Z,16.50
2018-10-06T20:26:55.841Z,16.50
2018-10-06T20:29:30.413Z,16.50
2018-10-06T20:32:05.063Z,16.40
2018-10-06T20:34:39.720Z,16.40
2018-10-06T20:37:14.334Z,16.40
2018-10-06T20:39:49.001Z,16.40
2018-10-06T20:42:23.609Z,16.40
2018-10-06T20:44:58.420Z,16.40
2018-10-06T20:47:33.041Z,16.40
2018-10-06T20:50:07.726Z,16.30
2018-10-06T20:52:42.354Z,16.40
2018-10-06T20:55:17.459Z,16.40
2018-10-06T20:57:51.689Z,16.40
2018-10-06T21:00:26.321Z,16.40
2018-10-06T21:03:00.826Z,16.40
2018-10-06T21:05:35.364Z,16.30
2018-10-06T21:08:09.854Z,16.30
2018-10-06T21:10:44.425Z,16.40
2018-10-06T21:13:19.393Z,16.30
2018-10-06T21:15:53.850Z,16.40
2018-10-06T21:18:28.294Z,16.40
2018-10-06T21:21:02.858Z,16.40
2018-10-06T21:23:37.349Z,16.40
2018-10-06T21:26:12.030Z,16.40
2018-10-06T21:28:46.525Z,16.30
2018-10-06T21:31:20.756Z,16.40
2018-10-06T21:33:55.530Z,16.30
2018-10-06T21:36:29.910Z,16.40
2018-10-06T21:39:07.765Z,16.30
2018-10-06T21:41:42.066Z,16.30
2018-10-06T21:44:16.887Z,16.30
2018-10-06T21:46:51.493Z,16.30
2018-10-06T21:49:26.060Z,16.30
2018-10-06T21:52:00.736Z,16.30
2018-10-06T21:54:35.246Z,16.20
2018-10-06T21:57:09.874Z,16.30
2018-10-06T21:59:44.496Z,16.30
2018-10-06T22:02:19.350Z,16.20
2018-10-06T22:04:53.839Z,16.20
2018-10-06T22:07:28.423Z,16.20
2018-10-06T22:10:02.964Z,16.20
2018-10-06T22:12:37.522Z,16.20
2018-10-06T22:15:12.080Z,16.10
2018-10-06T22:17:46.646Z,16.10
2018-10-06T22:20:21.127Z,16.10
2018-10-06T22:22:55.645Z,16.10
2018-10-06T22:25:30.220Z,16.10
2018-10-06T22:28:04.846Z,16.10
2018-10-06T22:30:39.360Z,16.10
2018-10-06T22:33:13.886Z,16.10
2018-10-06T22:35:48.531Z,16.10
2018-10-06T22:38:23.042Z,16.00
2018-10-06T22:40:57.910Z,16.00
2018-10-06T22:43:32.239Z,15.90
2018-10-06T22:46:07.151Z,15.80
2018-10-06T22:48:42.173Z,15.80
2018-10-06T22:51:16.826Z,15.80
2018-10-06T22:53:51.433Z,15.70
2018-10-06T22:56:26.169Z,15.70
2018-10-06T22:59:00.802Z,15.70
2018-10-06T23:01:35.425Z,15.60
2018-10-06T23:04:09.963Z,15.60
2018-10-06T23:06:44.625Z,15.60
2018-10-06T23:09:19.147Z,15.60
2018-10-06T23:11:53.949Z,15.60
2018-10-06T23:14:28.257Z,15.60
2018-10-06T23:17:02.777Z,15.60
2018-10-06T23:19:37.627Z,15.60
2018-10-06T23:22:12.087Z,15.60
2018-10-06T23:24:46.564Z,15.60
2018-10-06T23:27:21.133Z,15.60
2018-10-06T23:29:55.555Z,15.60
2018-10-06T23:32:30.136Z,15.60
2018-10-06T23:35:04.494Z,15.60
2018-10-06T23:37:39.785Z,15.50
2018-10-06T23:40:14.549Z,15.50
2018-10-06T23:42:49.109Z,15.50
2018-10-06T23:45:23.698Z,15.50
2018-10-06T23:47:58.233Z,15.50
2018-10-06T23:50:32.775Z,15.40
2018-10-06T23:53:07.549Z,15.50
2018-10-06T23:55:42.086Z,15.50
2018-10-06T23:58:17.014Z,15.50
